Flight Track Log - Related Links

Times and Time Zones

All times are in EDT time to prevent confusion due to time zone crossing. See the DAL674 flight status page for this flight to view local times or setup timezone preferences in your user account.

Time Position Orientation Groundspeed Altitude Reporting Facility
EDT Latitude Longitude Course Direction KTS MPH feet Rate Location/Type
Tue 04:59:00 PM 18.3150 -65.0902 255° West  Level FlightAware Approximate
Tue 05:00:00 PM 18.2876 -65.2118 258° West  Level FlightAware Approximate
Tue 05:01:00 PM 18.3020 -65.3341 283° West  Level FlightAware Approximate
Tue 05:02:00 PM 18.3279 -65.4562 282° West  Level FlightAware Approximate
Tue 05:03:00 PM 18.3538 -65.5781 289° West  Level FlightAware Approximate
Tue 05:04:00 PM 18.3813 -65.6995 281° West  Level FlightAware Approximate
Tue 05:05:00 PM 18.4030 -65.8225 281° West  Level FlightAware Approximate
Tue 05:06:00 PM 18.4257 -65.9453 282° West  Level FlightAware Approximate
Tue 05:07:00 PM 18.4927 -66.0427 317° Northwest  Level FlightAware Approximate
Tue 05:07:58 PM 18.3333 -65.0000 317° Northwest 170 196 1,400  Level San Juan Center
Tue 05:08:00 PM 18.5789 -66.1288 317° Northwest  Level FlightAware Approximate
Tue 05:08:58 PM 18.3333 -65.0500 270° West 220 253 2,900  Level San Juan Center
Tue 05:09:00 PM 18.6646 -66.2146 317° Northwest  Level FlightAware Approximate
Tue 05:09:58 PM 18.3333 -65.1333 270° West 280 322 6,000  Level San Juan Center
Tue 05:10:00 PM 18.7504 -66.3004 317° Northwest  Level FlightAware Approximate
Tue 05:10:58 PM 18.3500 -65.2167 282° West 290 334 8,800  Level San Juan Center
Tue 05:11:00 PM 18.8362 -66.3862 317° Northwest  Level FlightAware Approximate
Tue 05:11:59 PM 18.3667 -65.3000 282° West 330 380 10,900  Level San Juan Center
Tue 05:12:00 PM 18.9106 -66.4772 317° Northwest  Level FlightAware Approximate
Tue 05:12:59 PM 18.4167 -65.3833 302° West 370 426 12,200  Level San Juan Center
Tue 05:13:00 PM 18.9964 -66.5631 317° Northwest  Level FlightAware Approximate
Tue 05:13:59 PM 18.4833 -65.4833 305° West 400 460 14,000  Level San Juan Center
Tue 05:14:59 PM 18.5667 -65.5667 317° Northwest 420 483 16,200 2,200 Climbing San Juan Center
Tue 05:15:59 PM 18.6500 -65.6667 311° West 440 506 18,400 2,050 Climbing San Juan Center
Tue 05:16:59 PM 18.7333 -65.7500 317° Northwest 440 506 20,300 1,785 Climbing San Juan Center
Tue 05:18:00 PM 18.8167 -65.8500 311° West 450 518 22,000 1,650 Climbing San Juan Center
Tue 05:18:59 PM 18.9167 -65.9500 317° Northwest 470 541 23,600 1,550 Climbing San Juan Center
Tue 05:20:00 PM 19.0000 -66.0500 311° West 460 529 25,100 1,388 Climbing San Juan Center
Tue 05:21:00 PM 19.1000 -66.1500 317° Northwest 470 541 26,400 1,200 Climbing San Juan Center
Tue 05:22:00 PM 19.1833 -66.2167 323° Northwest 490 564 27,500 1,350 Climbing San Juan Center
Tue 05:23:00 PM 19.2667 -66.3167 311° West 480 552 29,100 1,600 Climbing San Juan Center
Tue 05:24:00 PM 19.3667 -66.4167 317° Northwest 480 552 30,700 1,636 Climbing San Juan Center
Tue 05:25:01 PM 19.4667 -66.5000 322° Northwest 470 541 32,400 1,339 Climbing San Juan Center
Tue 05:26:01 PM 19.5667 -66.6000 317° Northwest 460 529 33,400 1,150 Climbing San Juan Center
Tue 05:27:01 PM 19.6500 -66.7000 312° West 460 529 34,700 1,300 Climbing San Juan Center
Tue 05:28:01 PM 19.7500 -66.8167 312° West 460 529 36,000 650 Climbing San Juan Center
Tue 05:29:01 PM 19.8333 -66.9167 312° West 460 529 36,000  Level San Juan Center
Tue 05:30:01 PM 19.9167 -67.0167 312° West 460 529 36,000  Level San Juan Center
Tue 05:31:01 PM 20.0000 -67.1333 307° West 460 529 36,000  Level San Juan Center
Tue 05:32:01 PM 20.1000 -67.2333 317° Northwest 460 529 36,000  Level San Juan Center
Tue 05:33:01 PM 20.1833 -67.3333 312° West 470 541 36,000  Level San Juan Center
Tue 05:34:02 PM 20.2667 -67.4333 312° West 470 541 36,000  Level San Juan Center
Tue 05:35:02 PM 20.3500 -67.5500 307° West 460 529 36,000  Level San Juan Center
Tue 05:36:02 PM 20.4333 -67.6500 312° West 460 529 36,000  Level San Juan Center
Tue 05:37:02 PM 20.5167 -67.7500 312° West 460 529 36,000  Level San Juan Center
Tue 05:38:28 PM 20.6497 -67.9056 312° West 512 589 36,000  Level Miami Center
Tue 05:39:40 PM 20.7347 -68.0083 311° West 481 554 36,000  Level Miami Center
Tue 05:40:40 PM 20.8272 -68.1353 308° West 468 539 36,000  Level Miami Center
Tue 05:41:40 PM 20.9058 -68.2408 309° West 463 533 36,000  Level Miami Center
Tue 05:42:40 PM 20.9786 -68.3494 306° West 458 527 36,000  Level Miami Center
Tue 05:43:40 PM 21.0572 -68.4575 308° West 458 527 36,000 200 Level Miami Center
Tue 05:44:40 PM 21.1339 -68.5639 308° West 458 527 36,400 750 Climbing Miami Center
Tue 05:45:40 PM 21.2122 -68.6678 309° West 463 533 37,500 800 Climbing Miami Center
Tue 05:46:40 PM 21.2825 -68.7747 305° West 457 526 38,000 227 Climbing Miami Center
Tue 05:47:52 PM 21.3631 -68.8786 310° West 457 526 38,000  Level Miami Center
Tue 05:48:52 PM 21.4444 -69.0031 305° West 442 509 38,000  Level Miami Center
Tue 05:49:52 PM 21.5161 -69.1033 308° West 432 497 38,000  Level Miami Center
Tue 05:50:52 PM 21.5964 -69.2056 310° West 437 503 38,000  Level Miami Center
Tue 05:52:04 PM 21.6706 -69.3128 307° West 442 509 38,000  Level Miami Center
Tue 05:53:04 PM 21.7558 -69.4375 306° West 437 503 38,000  Level Miami Center
Tue 05:54:04 PM 21.8294 -69.5383 308° West 437 503 38,000  Level Miami Center
Tue 05:55:04 PM 21.9033 -69.6436 307° West 437 503 38,000  Level Miami Center
Tue 05:56:04 PM 21.9769 -69.7469 308° West 437 503 38,000  Level Miami Center
Tue 05:57:04 PM 22.0483 -69.8503 307° West 437 503 38,000  Level Miami Center
Tue 05:58:04 PM 22.1242 -69.9561 308° West 437 503 38,000  Level Miami Center
Tue 05:59:04 PM 22.1819 -70.0381 307° West 437 503 38,000  Level Miami Center
Tue 06:00:04 PM 22.2692 -70.1681 306° West 437 503 38,000  Level Miami Center
Tue 06:01:04 PM 22.3447 -70.2739 308° West 437 503 38,000  Level Miami Center
Tue 06:02:04 PM 22.4200 -70.3778 308° West 437 503 38,000  Level Miami Center
Tue 06:03:04 PM 22.4936 -70.4886 306° West 442 509 38,000  Level Miami Center
Tue 06:04:04 PM 22.5647 -70.5908 307° West 442 509 38,000  Level Miami Center
Tue 06:05:04 PM 22.6397 -70.6950 308° West 442 509 38,000  Level Miami Center
Tue 06:06:04 PM 22.7128 -70.7994 307° West 442 509 38,000  Level Miami Center
Tue 06:07:04 PM 22.7842 -70.9086 305° West 442 509 38,000  Level Miami Center
Tue 06:08:04 PM 22.8436 -70.9939 307° West 442 509 38,000  Level Miami Center
Tue 06:09:04 PM 22.9300 -71.1228 306° West 442 509 38,000  Level Miami Center
Tue 06:10:04 PM 23.0050 -71.2253 308° West 442 509 38,000  Level Miami Center
Tue 06:11:04 PM 23.0756 -71.3328 306° West 442 509 38,000  Level Miami Center
Tue 06:12:04 PM 23.1506 -71.4403 307° West 442 509 38,000  Level Miami Center
Tue 06:13:16 PM 23.2231 -71.5456 307° West 442 509 38,000  Level Miami Center
Tue 06:14:16 PM 23.3092 -71.6753 306° West 447 514 38,000  Level Miami Center
Tue 06:15:16 PM 23.3858 -71.7783 309° West 441 507 38,000  Level Miami Center
Tue 06:16:16 PM 23.4583 -71.8864 306° West 441 507 38,000  Level Miami Center
Tue 06:17:16 PM 23.5308 -71.9992 305° West 449 517 38,000  Level Miami Center
Tue 06:18:16 PM 23.5900 -72.0831 308° West 449 517 38,000  Level Miami Center
Tue 06:19:16 PM 23.6775 -72.2133 306° West 444 511 38,000  Level Miami Center
Tue 06:20:16 PM 23.7500 -72.3242 306° West 444 511 38,000  Level Miami Center
Tue 06:21:16 PM 23.8242 -72.4306 307° West 449 517 38,000  Level Miami Center
Tue 06:22:16 PM 23.8769 -72.5261 301° West 444 511 38,000  Level Miami Center
Tue 06:23:16 PM 23.9642 -72.6506 308° West 444 511 38,000  Level Miami Center
Tue 06:24:16 PM 24.0361 -72.7572 306° West 445 512 38,000  Level Miami Center
Tue 06:25:16 PM 24.0783 -72.8536 296° West 439 505 38,000  Level Miami Center
Tue 06:26:16 PM 24.1447 -72.9972 297° West 439 505 38,000  Level Miami Center
Tue 06:28:00 PM 24.2944 -73.1580 316° Northwest  Level FlightAware Approximate
Tue 06:30:16 PM 24.3714 -73.4689 305° West 439 505 38,000  Level Miami Center
Tue 06:31:16 PM 24.4175 -73.5636 298° West 439 505 38,000  Level Miami Center
Tue 06:32:16 PM 24.4853 -73.7056 298° West 444 511 38,000  Level Miami Center
Tue 06:33:16 PM 24.5442 -73.8228 299° West 444 511 38,000  Level Miami Center
Tue 06:34:16 PM 24.6008 -73.9403 298° West 444 511 38,000  Level Miami Center
Tue 06:35:00 PM 24.7871 -73.9188 305° West  Level FlightAware Approximate
Tue 06:35:16 PM 24.6575 -74.0556 298° West 444 511 38,000  Level Miami Center
Tue 06:36:28 PM 24.7161 -74.1708 299° West 439 505 38,000  Level Miami Center
Tue 06:37:40 PM 24.7769 -74.3136 295° West 439 505 38,000  Level Miami Center
Tue 06:38:40 PM 24.8314 -74.4317 297° West 434 499 38,000  Level Miami Center
Tue 06:39:40 PM 24.8897 -74.5586 297° West 434 499 38,000  Level Miami Center
Tue 06:40:40 PM 24.9439 -74.6769 297° West 431 496 38,000  Level Miami Center
Tue 06:41:40 PM 24.9956 -74.7906 297° West 425 489 38,000  Level Miami Center
Tue 06:42:40 PM 25.0517 -74.9089 298° West 419 482 38,000  Level Miami Center
Tue 06:43:40 PM 25.1075 -75.0272 298° West 426 490 38,000  Level Miami Center
Tue 06:44:52 PM 25.1611 -75.1414 297° West 426 490 38,000  Level Miami Center
Tue 06:45:52 PM 25.2253 -75.2828 297° West 421 484 38,000  Level Miami Center
Tue 06:46:52 PM 25.2808 -75.3947 299° West 421 484 38,000  Level Miami Center
Tue 06:47:52 PM 25.3425 -75.5181 299° West 426 490 38,000  Level Miami Center
Tue 06:48:52 PM 25.4208 -75.6231 310° West 432 497 38,000  Level Miami Center
Tue 06:49:52 PM 25.4906 -75.7261 307° West 432 497 38,000  Level Miami Center
Tue 06:50:52 PM 25.5708 -75.8289 311° West 438 504 38,000  Level Miami Center
Tue 06:52:04 PM 25.6406 -75.9319 307° West 438 504 38,000  Level Miami Center
Tue 06:53:04 PM 25.7331 -76.0558 310° West 438 504 38,000  Level Miami Center
Tue 06:54:04 PM 25.8069 -76.1617 308° West 437 503 38,000  Level Miami Center
Tue 06:55:04 PM 25.8825 -76.2675 308° West 437 503 38,000  Level Miami Center
Tue 06:56:04 PM 25.9519 -76.3664 308° West 437 503 38,000  Level Miami Center
Tue 06:57:04 PM 26.0294 -76.4747 309° West 432 497 38,000  Level Miami Center
Tue 06:58:16 PM 26.1028 -76.5764 309° West 432 497 38,000  Level Miami Center
Tue 06:59:28 PM 26.1908 -76.6989 309° West 432 497 38,000  Level Miami Center
Tue 07:00:28 PM 26.2808 -76.8261 308° West 437 503 38,000  Level Miami Center
Tue 07:01:28 PM 26.3456 -76.9236 307° West 430 495 38,000  Level Miami Center
Tue 07:02:28 PM 26.4186 -77.0258 309° West 435 501 38,000  Level Miami Center
Tue 07:03:28 PM 26.4936 -77.1350 308° West 435 501 38,000  Level Miami Center
Tue 07:04:40 PM 26.5667 -77.2375 309° West 430 495 38,000  Level Miami Center
Tue 07:05:40 PM 26.6539 -77.3608 308° West 430 495 38,000  Level Miami Center
Tue 07:06:40 PM 26.7286 -77.4658 309° West 430 495 38,000  Level Miami Center
Tue 07:07:40 PM 26.8075 -77.5803 308° West 430 495 38,000  Level Miami Center
Tue 07:08:52 PM 26.8803 -77.6808 309° West 431 496 38,000  Level Miami Center
Tue 07:10:04 PM 26.9650 -77.8144 305° West 426 490 38,000  Level Miami Center
Tue 07:11:04 PM 27.0519 -77.9411 308° West 431 496 38,000  Level Miami Center
Tue 07:12:04 PM 27.1097 -78.0164 311° West 431 496 38,000  Level Miami Center
Tue 07:13:04 PM 27.1944 -78.1433 307° West 424 488 38,000  Level Miami Center
Tue 07:14:04 PM 27.2686 -78.2444 310° West 417 480 38,000 350 Level Miami Center
Tue 07:15:04 PM 27.3386 -78.3483 307° West 417 480 38,700 500 Climbing Miami Center
Tue 07:16:04 PM 27.3981 -78.4428 305° West 417 480 39,000 150 Climbing Miami Center
Tue 07:17:04 PM 27.4700 -78.5467 308° West 417 480 39,000  Level Miami Center
Tue 07:18:04 PM 27.5419 -78.6508 308° West 417 480 39,000  Level Miami Center
Tue 07:19:04 PM 27.6200 -78.7622 308° West 422 486 39,000  Level Miami Center
Tue 07:20:04 PM 27.6833 -78.8547 308° West 418 481 39,000  Level Miami Center
Tue 07:21:04 PM 27.7589 -78.9686 307° West 412 474 39,000  Level Miami Center
Tue 07:22:04 PM 27.8306 -79.0733 308° West 412 474 39,000  Level Miami Center
Tue 07:23:04 PM 27.8897 -79.1661 306° West 417 480 39,000  Level Miami Center
Tue 07:24:04 PM 27.9589 -79.2708 307° West 417 480 39,000  Level Miami Center
Tue 07:25:04 PM 28.0281 -79.3736 307° West 417 480 39,000  Level Miami Center
Tue 07:26:04 PM 28.0972 -79.4786 307° West 417 480 39,000  Level Miami Center
Tue 07:27:04 PM 28.1642 -79.5814 306° West 417 480 39,000  Level Miami Center
Tue 07:28:04 PM 28.2353 -79.6844 308° West 417 480 39,000  Level Miami Center
Tue 07:29:04 PM 28.3042 -79.7900 307° West 417 480 39,000  Level Miami Center
Tue 07:30:04 PM 28.3708 -79.8933 306° West 417 480 39,000  Level Miami Center
Tue 07:31:04 PM 28.4294 -79.9775 308° West 417 480 39,000  Level Miami Center
Tue 07:32:16 PM 28.5183 -80.1144 306° West 417 480 39,000  Level Miami Center
Tue 07:33:28 PM 28.5908 -80.2300 306° West 419 482 39,000  Level Miami Center
Tue 07:34:28 PM 28.6814 -80.3653 307° West 414 476 39,000  Level Miami Center
Tue 07:35:28 PM 28.7478 -80.4692 306° West 419 482 39,000  Level Miami Center
Tue 07:37:28 PM 28.8986 -80.6728 310° West 415 478 39,000  Level Jacksonville Center
Tue 07:38:28 PM 28.9836 -80.7586 319° Northwest 415 478 39,000  Level Jacksonville Center
Tue 07:39:28 PM 29.0892 -80.8231 332° Northwest 415 478 39,000  Level Jacksonville Center
Tue 07:40:28 PM 29.1964 -80.8803 335° Northwest 415 478 39,000  Level Jacksonville Center
Tue 07:41:28 PM 29.3017 -80.9400 334° Northwest 420 483 39,000 -450 Level Jacksonville Center
Tue 07:42:28 PM 29.4069 -80.9975 335° Northwest 420 483 38,100 -950 Descending Jacksonville Center
Tue 07:43:28 PM 29.5100 -81.0575 333° Northwest 420 483 37,100 -550 Descending Jacksonville Center
Tue 07:44:28 PM 29.6175 -81.1153 335° Northwest 415 478 37,000 -50 Descending Jacksonville Center
Tue 07:45:28 PM 29.7225 -81.1778 333° Northwest 415 478 37,000  Level Jacksonville Center
Tue 07:46:28 PM 29.8278 -81.2333 335° Northwest 415 478 37,000  Level Jacksonville Center
Tue 07:47:28 PM 29.9328 -81.2939 333° Northwest 415 478 37,000  Level Jacksonville Center
Tue 07:48:28 PM 30.0400 -81.3544 334° Northwest 415 478 37,000  Level Jacksonville Center
Tue 07:49:28 PM 30.1494 -81.4153 334° Northwest 415 478 37,000  Level Jacksonville Center
Tue 07:50:28 PM 30.2544 -81.4739 334° Northwest 420 483 37,000  Level Jacksonville Center
Tue 07:51:28 PM 30.3617 -81.5347 334° Northwest 420 483 37,000  Level Jacksonville Center
Tue 07:52:28 PM 30.4603 -81.5911 334° Northwest 426 490 37,000  Level Jacksonville Center
Tue 07:53:28 PM 30.5694 -81.6525 334° Northwest 426 490 37,000  Level Jacksonville Center
Tue 07:54:28 PM 30.6767 -81.7164 333° Northwest 426 490 37,000  Level Jacksonville Center
Tue 07:55:28 PM 30.7817 -81.7778 333° Northwest 426 490 37,000  Level Jacksonville Center
Tue 07:56:28 PM 30.8886 -81.8419 333° Northwest 426 490 37,000  Level Jacksonville Center
Tue 07:57:28 PM 30.9956 -81.9039 334° Northwest 426 490 37,000  Level Jacksonville Center
Tue 07:58:28 PM 31.1025 -81.9658 334° Northwest 426 490 37,000  Level Jacksonville Center
Tue 07:59:28 PM 31.2094 -82.0303 333° Northwest 431 496 37,000  Level Jacksonville Center
Tue 08:00:28 PM 31.3183 -82.0925 334° Northwest 431 496 37,000  Level Jacksonville Center
Tue 08:01:28 PM 31.4275 -82.1572 333° Northwest 431 496 37,000 -50 Level Jacksonville Center
Tue 08:02:28 PM 31.5364 -82.2175 335° Northwest 431 496 36,900 -656 Descending Jacksonville Center
Tue 08:04:31 PM 31.7622 -82.3558 332° Northwest 448 516 35,000 -623 Descending Atlanta Center
Tue 08:05:31 PM 31.8636 -82.4444 323° Northwest 454 522 35,000  Level Atlanta Center
Tue 08:06:31 PM 31.9631 -82.5456 319° Northwest 459 528 35,000  Level Atlanta Center
Tue 08:07:31 PM 32.0622 -82.6469 319° Northwest 459 528 35,000 -900 Level Atlanta Center
Tue 08:08:31 PM 32.1614 -82.7483 319° Northwest 470 541 33,200 -2,200 Descending Atlanta Center
Tue 08:09:31 PM 32.2606 -82.8475 320° Northwest 470 541 30,600 -1,950 Descending Atlanta Center
Tue 08:10:31 PM 32.3658 -82.9519 320° Northwest 475 547 29,300 -1,300 Descending Atlanta Center
Tue 08:11:31 PM 32.4692 -83.0564 320° Northwest 480 552 28,000 -1,050 Descending Atlanta Center
Tue 08:12:31 PM 32.5742 -83.1614 320° Northwest 487 560 27,200 -1,000 Descending Atlanta Center
Tue 08:13:31 PM 32.6772 -83.2639 320° Northwest 492 566 26,000 -2,150 Descending Atlanta Center
Tue 08:14:31 PM 32.7800 -83.3692 319° Northwest 492 566 22,900 -3,067 Descending Atlanta Center
Tue 08:16:31 PM 32.9689 -83.5583 320° Northwest 457 526 16,800 -3,067 Descending Atlanta Center
Tue 08:17:31 PM 33.0653 -83.6572 319° Northwest 431 496 13,700 -2,150 Descending Atlanta Center
Tue 08:18:31 PM 33.1447 -83.7361 320° Northwest 393 452 12,500 -800 Descending Atlanta Center
Tue 08:19:31 PM 33.2139 -83.8078 319° Northwest 350 403 12,100 -600 Descending Atlanta Center
Tue 08:20:31 PM 33.2661 -83.8797 311° West 302 348 11,300 -800 Descending Atlanta Center
Tue 08:21:31 PM 33.3142 -83.9567 307° West 291 335 10,500 -950 Descending Atlanta Center
Tue 08:22:31 PM 33.3683 -84.0239 314° West 286 329 9,400 -1,950 Descending Atlanta Center
Tue 08:23:31 PM 33.4456 -84.0414 349° North 267 307 6,600 -2,300 Descending Atlanta Center
Tue 08:24:31 PM 33.5208 -84.0611 348° North 273 314 4,800 -1,450 Descending Atlanta Center
Tue 08:25:31 PM 33.5772 -84.1061 326° Northwest 252 290 3,700 -931 Descending Atlanta Center
Tue 08:26:27 PM 33.6000 -84.1667 294° West 234 269 3,000 -344 Descending Atlanta TRACON
Tue 08:27:33 PM 33.6167 -84.2333 287° West 182 209 3,000  Level Atlanta TRACON
Tue 08:28:27 PM 33.6333 -84.2833 292° West 174 200 3,000 -421 Level Atlanta TRACON
Tue 08:29:27 PM 33.6333 -84.3500 270° West 158 182 2,200 -762 Descending Atlanta TRACON
Tue 08:30:33 PM 33.6333 -84.4000 270° West 144 166 1,400 -727 Descending Atlanta TRACON

Login

Don't have an account? Register now (free) for customized features, flight alerts, and more!